Time;durP1;ratioP1;P1;durP2;ratioP2;P2;SDS_P1;SDS_P2;PMS_P1;PMS_P2;Temp;Humidity;BMP_temperature;BMP_pressure;BME280_temperature;BME280_humidity;BME280_pressure;Samples;Min_cycle;Max_cycle;Signal;HPM_P1;HPM_P2
2023/10/22 00:00:50;;;;;;;9.30;0.83;;;;;;;;;;5093712;28;20075;-68
2023/10/22 00:03:16;;;;;;;12.65;0.85;;;;;;;;;;5075504;28;20036;-70
2023/10/22 00:05:42;;;;;;;4.35;0.60;;;;;;;;;;5093401;28;20387;-68
2023/10/22 00:08:08;;;;;;;6.53;0.70;;;;;;;;;;5093342;28;20040;-70
2023/10/22 00:10:34;;;;;;;6.03;0.60;;;;;;;;;;5075818;28;20048;-69
2023/10/22 00:13:00;;;;;;;6.78;0.60;;;;;;;;;;5093624;28;20405;-69
2023/10/22 00:15:27;;;;;;;4.75;0.52;;;;;;;;;;5075312;28;20123;-69
2023/10/22 00:17:53;;;;;;;10.38;0.93;;;;;;;;;;5093071;28;20046;-68
2023/10/22 00:20:19;;;;;;;5.78;0.55;;;;;;;;;;5093717;28;20341;-69
2023/10/22 00:22:46;;;;;;;5.30;0.40;;;;;;;;;;5093048;28;20050;-69
2023/10/22 00:25:12;;;;;;;4.13;0.47;;;;;;;;;;5075378;28;20506;-69
2023/10/22 00:27:38;;;;;;;9.52;0.70;;;;;;;;;;5093116;28;20047;-69
2023/10/22 00:30:05;;;;;;;4.28;0.50;;;;;;;;;;5075005;28;20123;-69
2023/10/22 00:32:32;;;;;;;8.50;0.73;;;;;;;;;;5093051;28;20055;-68
2023/10/22 00:34:58;;;;;;;4.55;0.45;;;;;;;;;;5093270;28;20044;-70
2023/10/22 00:37:24;;;;;;;5.18;0.40;;;;;;;;;;5093014;28;20044;-69
2023/10/22 00:39:50;;;;;;;8.10;0.57;;;;;;;;;;5092987;28;20051;-69
2023/10/22 00:42:16;;;;;;;5.63;0.50;;;;;;;;;;5075180;28;20040;-69
2023/10/22 00:44:42;;;;;;;11.77;0.65;;;;;;;;;;5078531;28;20040;-69
2023/10/22 00:47:14;;;;;;;8.60;0.70;;;;;;;;;;5097534;28;20043;-68
2023/10/22 00:49:40;;;;;;;4.05;0.80;;;;;;;;;;5097169;28;20069;-69
2023/10/22 00:52:07;;;;;;;4.80;0.40;;;;;;;;;;5097130;28;20043;-70
2023/10/22 00:54:34;;;;;;;8.82;0.60;;;;;;;;;;5096847;28;20097;-71
2023/10/22 00:57:00;;;;;;;5.63;0.50;;;;;;;;;;5096672;28;20368;-68
2023/10/22 00:59:26;;;;;;;5.18;0.73;;;;;;;;;;5078816;28;20052;-69
2023/10/22 01:01:52;;;;;;;6.23;0.60;;;;;;;;;;5096409;28;20069;-72
2023/10/22 01:04:18;;;;;;;8.07;0.60;;;;;;;;;;5062097;28;20044;-69
2023/10/22 01:06:44;;;;;;;4.07;0.60;;;;;;;;;;5096590;28;20044;-68
2023/10/22 01:09:11;;;;;;;3.85;0.55;;;;;;;;;;5096491;28;20132;-70
2023/10/22 01:11:38;;;;;;;7.40;0.57;;;;;;;;;;5096463;28;20450;-69
2023/10/22 01:14:05;;;;;;;8.27;0.63;;;;;;;;;;5078177;28;20407;-68
2023/10/22 01:16:32;;;;;;;8.50;0.93;;;;;;;;;;5078298;28;20381;-68
2023/10/22 01:18:58;;;;;;;5.32;0.43;;;;;;;;;;5078330;28;20040;-67
2023/10/22 01:21:24;;;;;;;6.60;0.60;;;;;;;;;;5078489;28;20039;-71
2023/10/22 01:23:50;;;;;;;5.27;0.53;;;;;;;;;;5095956;28;20050;-69
2023/10/22 01:26:17;;;;;;;13.45;0.95;;;;;;;;;;5078311;28;20377;-68
2023/10/22 01:28:43;;;;;;;7.53;0.60;;;;;;;;;;5078102;28;20051;-70
2023/10/22 01:31:14;;;;;;;7.43;1.60;;;;;;;;;;5078214;28;20468;-68
2023/10/22 01:33:40;;;;;;;7.03;1.15;;;;;;;;;;5062360;28;20097;-69
2023/10/22 01:36:06;;;;;;;5.18;0.50;;;;;;;;;;5096431;28;20040;-70
2023/10/22 01:38:32;;;;;;;7.20;0.60;;;;;;;;;;5096466;28;20391;-68
2023/10/22 01:40:59;;;;;;;7.43;0.70;;;;;;;;;;5095844;28;20048;-69
2023/10/22 01:43:25;;;;;;;9.10;0.60;;;;;;;;;;5096068;28;20135;-69
2023/10/22 01:45:51;;;;;;;4.15;0.57;;;;;;;;;;5078775;28;20095;-71
2023/10/22 01:48:17;;;;;;;5.20;0.55;;;;;;;;;;5095744;28;20040;-69
2023/10/22 01:50:43;;;;;;;6.75;0.73;;;;;;;;;;5095750;28;20136;-68
2023/10/22 01:53:09;;;;;;;6.20;0.50;;;;;;;;;;5096150;28;20054;-70
2023/10/22 01:55:35;;;;;;;6.28;0.73;;;;;;;;;;5076387;28;20044;-68
2023/10/22 01:58:02;;;;;;;4.95;0.45;;;;;;;;;;5061363;28;20079;-69
2023/10/22 02:00:30;;;;;;;2.95;0.50;;;;;;;;;;5078258;28;20048;-70
2023/10/22 02:02:56;;;;;;;5.15;0.50;;;;;;;;;;5095514;28;20124;-69
2023/10/22 02:05:22;;;;;;;6.25;0.73;;;;;;;;;;5095925;28;20040;-68
2023/10/22 02:07:48;;;;;;;5.63;0.55;;;;;;;;;;5095450;28;20097;-69
2023/10/22 02:10:14;;;;;;;8.00;1.17;;;;;;;;;;5095304;28;20055;-70
2023/10/22 02:12:40;;;;;;;8.63;1.00;;;;;;;;;;5077425;28;20132;-71
2023/10/22 02:15:07;;;;;;;3.38;0.52;;;;;;;;;;5095204;28;20044;-69
2023/10/22 02:17:33;;;;;;;5.10;1.00;;;;;;;;;;5094943;28;20514;-69
2023/10/22 02:19:59;;;;;;;6.10;0.75;;;;;;;;;;5077457;28;20123;-68
2023/10/22 02:22:25;;;;;;;7.18;0.82;;;;;;;;;;5077248;28;20051;-69
2023/10/22 02:24:51;;;;;;;5.63;0.70;;;;;;;;;;5095687;28;20522;-69
2023/10/22 02:27:17;;;;;;;6.85;0.60;;;;;;;;;;5095146;28;20081;-70
2023/10/22 02:29:43;;;;;;;7.03;0.80;;;;;;;;;;5077246;28;20087;-70
2023/10/22 02:32:09;;;;;;;6.18;0.60;;;;;;;;;;5095588;28;20056;-71
2023/10/22 02:34:36;;;;;;;16.30;1.40;;;;;;;;;;5076744;28;20079;-68
2023/10/22 02:37:02;;;;;;;6.32;0.93;;;;;;;;;;5077134;28;20044;-69
2023/10/22 02:39:28;;;;;;;8.95;1.00;;;;;;;;;;5095318;28;20055;-69
2023/10/22 02:41:54;;;;;;;9.48;1.08;;;;;;;;;;5076929;28;20047;-70
2023/10/22 02:44:21;;;;;;;5.47;0.80;;;;;;;;;;5095274;28;20149;-70
2023/10/22 02:46:47;;;;;;;5.55;1.40;;;;;;;;;;5094640;28;20131;-73
2023/10/22 02:49:13;;;;;;;4.32;0.75;;;;;;;;;;5095013;28;20055;-69
2023/10/22 02:51:39;;;;;;;2.92;0.70;;;;;;;;;;5094595;28;20050;-71
2023/10/22 02:54:06;;;;;;;8.88;1.30;;;;;;;;;;5094357;28;20040;-70
2023/10/22 02:56:32;;;;;;;8.53;1.30;;;;;;;;;;5093968;28;20585;-70
2023/10/22 02:58:58;;;;;;;4.20;0.70;;;;;;;;;;5076716;28;20681;-70
2023/10/22 03:01:24;;;;;;;5.35;1.00;;;;;;;;;;5076988;28;20124;-70
2023/10/22 03:03:50;;;;;;;7.57;1.10;;;;;;;;;;5094069;28;20583;-69
2023/10/22 03:06:16;;;;;;;5.93;0.73;;;;;;;;;;5076231;28;20411;-68
2023/10/22 03:08:42;;;;;;;7.13;0.95;;;;;;;;;;5094332;28;20075;-69
2023/10/22 03:11:18;;;;;;;17.40;3.90;;;;;;;;;;5094824;28;20048;-72
2023/10/22 03:13:45;;;;;;;5.38;1.30;;;;;;;;;;5076252;28;20108;-69
2023/10/22 03:16:14;;;;;;;5.20;0.98;;;;;;;;;;5093983;28;20044;-70
2023/10/22 03:18:41;;;;;;;7.40;1.33;;;;;;;;;;5076353;28;20052;-70
2023/10/22 03:21:20;;;;;;;8.75;1.20;;;;;;;;;;5094657;28;20059;-71
2023/10/22 03:23:47;;;;;;;7.53;1.00;;;;;;;;;;5093945;28;20448;-71
2023/10/22 03:26:18;;;;;;;6.60;1.23;;;;;;;;;;5094509;28;20091;-69
2023/10/22 03:28:45;;;;;;;6.53;0.95;;;;;;;;;;5094419;28;20056;-71
2023/10/22 03:31:11;;;;;;;7.00;1.27;;;;;;;;;;5093917;28;20044;-73
2023/10/22 03:33:37;;;;;;;5.93;1.10;;;;;;;;;;5075595;28;20040;-73
2023/10/22 03:36:09;;;;;;;7.75;0.98;;;;;;;;;;5093762;28;20304;-72
2023/10/22 03:38:35;;;;;;;7.90;1.40;;;;;;;;;;5093777;28;20043;-72
2023/10/22 03:41:02;;;;;;;9.57;0.98;;;;;;;;;;5075771;28;20047;-71
2023/10/22 03:43:28;;;;;;;9.13;1.40;;;;;;;;;;5075795;28;20048;-71
2023/10/22 03:45:58;;;;;;;6.68;1.33;;;;;;;;;;5076264;28;20040;-68
2023/10/22 03:48:24;;;;;;;7.35;1.10;;;;;;;;;;5094046;28;20060;-71
2023/10/22 03:50:50;;;;;;;8.95;1.33;;;;;;;;;;5093638;28;20048;-70
2023/10/22 03:53:17;;;;;;;3.80;0.90;;;;;;;;;;5094011;28;20047;-69
2023/10/22 03:55:43;;;;;;;8.18;1.67;;;;;;;;;;5075281;28;20127;-72
2023/10/22 03:58:09;;;;;;;8.95;1.98;;;;;;;;;;5076553;28;20420;-72
2023/10/22 04:00:35;;;;;;;6.78;1.20;;;;;;;;;;5075568;28;20132;-69
2023/10/22 04:03:01;;;;;;;5.97;1.30;;;;;;;;;;5075522;28;20491;-71
2023/10/22 04:05:28;;;;;;;4.03;1.25;;;;;;;;;;5093413;28;20416;-69
2023/10/22 04:07:54;;;;;;;7.13;1.30;;;;;;;;;;5093431;28;20056;-71
2023/10/22 04:10:20;;;;;;;5.72;1.63;;;;;;;;;;5093771;28;20290;-69
2023/10/22 04:12:46;;;;;;;6.78;1.10;;;;;;;;;;5093936;28;20089;-71
2023/10/22 04:15:12;;;;;;;6.95;2.00;;;;;;;;;;5093159;28;20040;-72
2023/10/22 04:17:39;;;;;;;6.07;1.45;;;;;;;;;;5092581;28;20044;-71
2023/10/22 04:20:05;;;;;;;6.20;1.40;;;;;;;;;;5093263;28;20131;-71
2023/10/22 04:22:32;;;;;;;7.38;1.60;;;;;;;;;;5093898;28;20090;-71
2023/10/22 04:24:58;;;;;;;5.10;1.50;;;;;;;;;;5093637;28;20052;-71
2023/10/22 04:27:24;;;;;;;8.48;1.50;;;;;;;;;;5075188;28;20048;-73
2023/10/22 04:29:52;;;;;;;8.73;1.83;;;;;;;;;;5075373;28;20131;-71
2023/10/22 04:32:18;;;;;;;3.80;1.27;;;;;;;;;;5075178;28;20135;-71
2023/10/22 04:34:44;;;;;;;4.25;1.58;;;;;;;;;;5075171;28;20094;-70
2023/10/22 04:37:13;;;;;;;7.78;1.98;;;;;;;;;;5093471;28;20049;-71
2023/10/22 04:39:41;;;;;;;9.20;2.10;;;;;;;;;;5074888;28;20118;-71
2023/10/22 04:42:07;;;;;;;4.97;1.60;;;;;;;;;;5092990;28;20044;-71
2023/10/22 04:44:33;;;;;;;4.88;1.45;;;;;;;;;;5092502;28;20488;-69
2023/10/22 04:46:59;;;;;;;3.85;1.50;;;;;;;;;;5093051;28;20503;-71
2023/10/22 04:49:26;;;;;;;3.25;1.20;;;;;;;;;;5074699;28;20547;-72
2023/10/22 04:51:53;;;;;;;6.32;1.33;;;;;;;;;;5075886;28;20130;-73
2023/10/22 04:54:19;;;;;;;6.63;1.20;;;;;;;;;;5075029;28;20052;-72
2023/10/22 04:56:45;;;;;;;4.05;1.20;;;;;;;;;;5092622;28;20147;-72
2023/10/22 04:59:11;;;;;;;6.15;1.60;;;;;;;;;;5092882;28;20488;-71
2023/10/22 05:01:38;;;;;;;5.75;1.00;;;;;;;;;;5057991;28;20055;-72
2023/10/22 05:04:04;;;;;;;6.22;2.15;;;;;;;;;;5074891;28;20056;-72
2023/10/22 05:06:30;;;;;;;2.95;1.13;;;;;;;;;;5074777;28;20071;-71
2023/10/22 05:08:56;;;;;;;3.10;1.10;;;;;;;;;;5092467;28;20124;-69
2023/10/22 05:11:23;;;;;;;3.53;1.40;;;;;;;;;;5074696;28;20055;-71
2023/10/22 05:13:49;;;;;;;3.97;1.33;;;;;;;;;;5074671;28;20082;-73
2023/10/22 05:16:15;;;;;;;6.05;1.30;;;;;;;;;;5075018;28;20377;-70
2023/10/22 05:18:41;;;;;;;4.47;1.33;;;;;;;;;;5092424;28;20044;-68
2023/10/22 05:21:07;;;;;;;5.18;0.82;;;;;;;;;;5092425;28;20040;-67
2023/10/22 05:23:34;;;;;;;3.85;0.82;;;;;;;;;;5092420;28;20052;-70
2023/10/22 05:26:15;;;;;;;2.10;0.80;;;;;;;;;;5074380;28;20151;-67
2023/10/22 05:28:41;;;;;;;3.22;0.88;;;;;;;;;;5092915;28;20106;-70
2023/10/22 05:31:18;;;;;;;2.70;0.70;;;;;;;;;;5094663;28;20048;-69
2023/10/22 05:33:44;;;;;;;;;;;;;;;;;;5096829;28;20055;-70
2023/10/22 05:36:28;;;;;;;2.33;0.93;;;;;;;;;;5095800;28;19919;-70
2023/10/22 05:38:54;;;;;;;3.55;1.02;;;;;;;;;;5096332;28;20044;-70
2023/10/22 05:41:25;;;;;;;6.75;1.60;;;;;;;;;;5096055;28;20047;-67
2023/10/22 05:43:52;;;;;;;7.07;1.92;;;;;;;;;;5096356;28;20539;-70
2023/10/22 05:46:18;;;;;;;5.57;1.63;;;;;;;;;;5096327;28;20040;-68
2023/10/22 05:48:44;;;;;;;3.83;1.13;;;;;;;;;;5095967;28;20452;-68
2023/10/22 05:51:10;;;;;;;4.70;1.70;;;;;;;;;;5096494;28;20104;-69
2023/10/22 05:53:36;;;;;;;6.40;3.08;;;;;;;;;;5095736;28;20040;-67
2023/10/22 05:56:03;;;;;;;3.15;1.33;;;;;;;;;;5060701;28;20047;-69
2023/10/22 05:58:29;;;;;;;;;;;;;;;;;;5096990;28;20388;-69
2023/10/22 06:00:56;;;;;;;4.20;1.20;;;;;;;;;;5095669;28;19920;-69
2023/10/22 06:03:22;;;;;;;5.55;1.60;;;;;;;;;;5095549;28;20043;-70
2023/10/22 06:05:49;;;;;;;6.40;1.80;;;;;;;;;;5095485;28;20036;-71
2023/10/22 06:08:15;;;;;;;7.60;2.42;;;;;;;;;;5095549;28;20054;-69
2023/10/22 06:10:42;;;;;;;11.82;3.30;;;;;;;;;;5095395;28;20082;-67
2023/10/22 06:13:08;;;;;;;6.30;2.97;;;;;;;;;;5095405;28;20048;-67
2023/10/22 06:15:38;;;;;;;11.43;4.05;;;;;;;;;;5095166;28;20040;-73
2023/10/22 06:18:04;;;;;;;10.38;3.47;;;;;;;;;;5095430;28;20040;-69
2023/10/22 06:20:31;;;;;;;14.73;4.60;;;;;;;;;;5095266;28;20056;-69
2023/10/22 06:22:57;;;;;;;8.90;2.88;;;;;;;;;;5060586;28;20055;-69
2023/10/22 06:25:23;;;;;;;10.63;3.73;;;;;;;;;;5095147;28;20131;-70
2023/10/22 06:27:50;;;;;;;10.73;3.10;;;;;;;;;;5095701;28;20282;-68
2023/10/22 06:30:21;;;;;;;12.70;3.30;;;;;;;;;;5095010;28;20073;-70
2023/10/22 06:32:49;;;;;;;7.50;2.85;;;;;;;;;;5094742;28;20503;-67
2023/10/22 06:35:15;;;;;;;12.25;3.97;;;;;;;;;;5094772;28;20089;-68
2023/10/22 06:37:41;;;;;;;11.80;2.83;;;;;;;;;;5094758;28;20047;-68
2023/10/22 06:40:08;;;;;;;8.50;2.72;;;;;;;;;;5076736;28;20048;-70
2023/10/22 06:42:34;;;;;;;8.73;2.92;;;;;;;;;;5095089;28;20392;-70
2023/10/22 06:45:00;;;;;;;9.48;2.95;;;;;;;;;;5094370;28;20544;-69
2023/10/22 06:47:28;;;;;;;13.05;3.60;;;;;;;;;;5060211;28;20139;-70
2023/10/22 06:49:53;;;;;;;;;;;;;;;;;;5094635;28;20596;-70
2023/10/22 06:52:20;;;;;;;12.47;3.33;;;;;;;;;;5094661;28;19963;-70
2023/10/22 06:54:46;;;;;;;12.88;3.95;;;;;;;;;;5094998;28;20427;-70
2023/10/22 06:57:12;;;;;;;11.30;3.50;;;;;;;;;;5076053;28;20044;-71
2023/10/22 06:59:38;;;;;;;14.70;3.85;;;;;;;;;;5094356;28;20048;-72
2023/10/22 07:02:04;;;;;;;9.00;3.33;;;;;;;;;;5076369;28;20094;-69
2023/10/22 07:04:30;;;;;;;10.43;3.45;;;;;;;;;;5077246;28;20093;-69
2023/10/22 07:06:56;;;;;;;12.27;3.90;;;;;;;;;;5094286;28;20055;-71
2023/10/22 07:09:22;;;;;;;13.25;3.90;;;;;;;;;;5060540;28;20054;-70
2023/10/22 07:11:48;;;;;;;12.10;3.65;;;;;;;;;;5094580;28;20044;-71
2023/10/22 07:14:14;;;;;;;11.32;4.03;;;;;;;;;;5059736;28;20177;-71
2023/10/22 07:16:41;;;;;;;13.30;3.63;;;;;;;;;;5076577;28;20047;-69
2023/10/22 07:19:07;;;;;;;11.88;4.00;;;;;;;;;;5075852;28;20055;-71
2023/10/22 07:21:33;;;;;;;12.90;4.07;;;;;;;;;;5093666;28;20522;-70
2023/10/22 07:23:59;;;;;;;12.68;3.88;;;;;;;;;;5093802;28;20055;-71
2023/10/22 07:26:26;;;;;;;12.77;4.25;;;;;;;;;;5093887;28;20040;-69
2023/10/22 07:28:52;;;;;;;12.38;3.65;;;;;;;;;;5093771;28;20480;-70
2023/10/22 07:31:18;;;;;;;9.93;3.85;;;;;;;;;;5094250;28;20113;-69
2023/10/22 07:33:44;;;;;;;18.10;4.20;;;;;;;;;;5093727;28;20136;-76
2023/10/22 07:36:11;;;;;;;12.27;4.30;;;;;;;;;;5076003;28;20437;-71
2023/10/22 07:38:40;;;;;;;10.85;4.63;;;;;;;;;;5093792;28;20059;-70
2023/10/22 07:41:11;;;;;;;9.23;4.20;;;;;;;;;;5093590;28;20105;-70
2023/10/22 07:43:37;;;;;;;8.80;4.28;;;;;;;;;;5093831;28;20059;-71
2023/10/22 07:46:04;;;;;;;10.10;4.78;;;;;;;;;;5076172;28;20377;-73
2023/10/22 07:48:30;;;;;;;14.35;4.70;;;;;;;;;;5075338;28;20136;-68
2023/10/22 07:51:07;;;;;;;11.23;4.38;;;;;;;;;;5076012;28;20059;-71
2023/10/22 07:53:33;;;;;;;8.40;4.03;;;;;;;;;;5092726;28;20051;-69
2023/10/22 07:55:59;;;;;;;9.70;3.00;;;;;;;;;;5093117;28;20170;-71
2023/10/22 07:58:25;;;;;;;14.18;4.82;;;;;;;;;;5058709;28;20469;-72
2023/10/22 08:00:52;;;;;;;15.52;5.72;;;;;;;;;;5093139;28;20056;-69
2023/10/22 08:03:18;;;;;;;11.02;4.68;;;;;;;;;;5093221;28;20044;-70
2023/10/22 08:05:44;;;;;;;15.05;5.38;;;;;;;;;;5075522;28;20388;-70
2023/10/22 08:08:10;;;;;;;11.05;5.13;;;;;;;;;;5075881;28;20048;-70
2023/10/22 08:10:36;;;;;;;13.82;4.95;;;;;;;;;;5075953;28;20075;-71
2023/10/22 08:13:02;;;;;;;12.37;5.03;;;;;;;;;;5093414;28;20044;-70
2023/10/22 08:15:28;;;;;;;10.80;4.88;;;;;;;;;;5075119;28;20131;-70
2023/10/22 08:17:54;;;;;;;12.50;5.38;;;;;;;;;;5093066;28;20051;-71
2023/10/22 08:20:20;;;;;;;14.38;5.18;;;;;;;;;;5075086;28;20093;-73
2023/10/22 08:22:46;;;;;;;12.60;4.47;;;;;;;;;;5093040;28;20388;-71
2023/10/22 08:25:13;;;;;;;16.63;5.10;;;;;;;;;;5092765;28;20468;-71
2023/10/22 08:27:39;;;;;;;18.88;5.75;;;;;;;;;;5058458;28;20048;-73
2023/10/22 08:30:05;;;;;;;11.55;4.35;;;;;;;;;;5074832;28;20051;-69
2023/10/22 08:32:35;;;;;;;12.75;5.88;;;;;;;;;;5075221;28;20044;-69
2023/10/22 08:35:04;;;;;;;11.88;5.07;;;;;;;;;;5092558;28;20040;-70
2023/10/22 08:37:30;;;;;;;15.52;5.32;;;;;;;;;;5092720;28;20048;-72
2023/10/22 08:39:56;;;;;;;9.23;4.55;;;;;;;;;;5074584;28;20181;-71
2023/10/22 08:42:24;;;;;;;11.13;4.50;;;;;;;;;;5074617;28;20048;-73
2023/10/22 08:44:52;;;;;;;11.30;4.40;;;;;;;;;;5093151;28;20047;-73
2023/10/22 08:47:18;;;;;;;11.52;4.50;;;;;;;;;;5092836;28;20119;-71
2023/10/22 08:49:48;;;;;;;13.13;4.72;;;;;;;;;;5057663;28;20052;-73
2023/10/22 08:52:14;;;;;;;11.18;4.38;;;;;;;;;;5092597;28;20056;-70
2023/10/22 08:54:40;;;;;;;9.43;2.78;;;;;;;;;;5075000;28;20050;-69
2023/10/22 08:57:06;;;;;;;10.52;4.45;;;;;;;;;;5074368;28;20399;-70
2023/10/22 08:59:38;;;;;;;12.90;4.78;;;;;;;;;;5092658;28;20093;-71
2023/10/22 09:02:06;;;;;;;10.52;4.22;;;;;;;;;;5074453;28;20079;-70
2023/10/22 09:04:33;;;;;;;9.05;4.30;;;;;;;;;;5094031;28;20040;-68
2023/10/22 09:06:59;;;;;;;11.50;4.28;;;;;;;;;;5078233;28;20535;-70
2023/10/22 09:09:43;;;;;;;12.40;4.63;;;;;;;;;;5096292;28;20131;-72
2023/10/22 09:12:10;;;;;;;11.02;5.28;;;;;;;;;;5096615;28;20428;-71
2023/10/22 09:14:36;;;;;;;13.30;5.05;;;;;;;;;;5096737;28;20384;-71
2023/10/22 09:17:19;;;;;;;13.05;4.85;;;;;;;;;;5078415;28;20043;-72
2023/10/22 09:19:48;;;;;;;10.02;4.80;;;;;;;;;;5079100;28;20075;-70
2023/10/22 09:22:24;;;;;;;14.70;4.90;;;;;;;;;;5096626;28;20103;-70
2023/10/22 09:24:53;;;;;;;17.30;5.43;;;;;;;;;;5096047;28;20132;-74
2023/10/22 09:27:25;;;;;;;11.68;5.03;;;;;;;;;;5096049;28;20118;-71
2023/10/22 09:29:52;;;;;;;12.80;5.85;;;;;;;;;;5096059;28;20043;-69
2023/10/22 09:32:19;;;;;;;12.20;5.30;;;;;;;;;;5096490;28;20048;-71
2023/10/22 09:34:45;;;;;;;17.33;5.93;;;;;;;;;;5096116;28;20044;-70
2023/10/22 09:37:11;;;;;;;14.63;6.03;;;;;;;;;;5077597;28;20052;-71
2023/10/22 09:39:44;;;;;;;10.90;5.32;;;;;;;;;;5077548;28;20407;-71
2023/10/22 09:42:11;;;;;;;16.23;5.70;;;;;;;;;;5077769;28;20044;-71
2023/10/22 09:44:38;;;;;;;12.45;5.38;;;;;;;;;;5095833;28;20044;-71
2023/10/22 09:47:06;;;;;;;12.20;5.78;;;;;;;;;;5077599;28;20075;-72
2023/10/22 09:49:38;;;;;;;13.23;5.03;;;;;;;;;;5077651;28;20058;-69
2023/10/22 09:52:06;;;;;;;12.90;5.22;;;;;;;;;;5096000;28;20044;-70
2023/10/22 09:54:41;;;;;;;14.02;5.70;;;;;;;;;;5077978;28;20047;-70
2023/10/22 09:57:07;;;;;;;14.02;5.45;;;;;;;;;;5077487;28;20082;-68
2023/10/22 09:59:33;;;;;;;13.65;6.00;;;;;;;;;;5061508;28;20476;-70
2023/10/22 10:02:00;;;;;;;11.05;5.43;;;;;;;;;;5078024;28;20084;-69
2023/10/22 10:04:27;;;;;;;13.73;5.00;;;;;;;;;;5095505;28;20087;-69
2023/10/22 10:06:53;;;;;;;13.23;5.50;;;;;;;;;;5044753;28;20067;-70
2023/10/22 10:09:20;;;;;;;11.38;5.75;;;;;;;;;;5095553;28;20048;-70
2023/10/22 10:11:47;;;;;;;14.10;4.90;;;;;;;;;;5095442;28;20040;-72
2023/10/22 10:14:33;;;;;;;9.85;5.05;;;;;;;;;;5060640;28;20052;-71
2023/10/22 10:17:01;;;;;;;13.75;5.80;;;;;;;;;;5076520;28;20047;-71
2023/10/22 10:19:27;;;;;;;13.80;5.65;;;;;;;;;;5096106;28;20398;-73
2023/10/22 10:21:53;;;;;;;12.13;5.50;;;;;;;;;;5077738;28;20397;-68
2023/10/22 10:24:24;;;;;;;13.38;5.50;;;;;;;;;;5095297;28;20048;-70
2023/10/22 10:26:51;;;;;;;12.20;5.63;;;;;;;;;;5095927;28;20040;-70
2023/10/22 10:29:21;;;;;;;9.43;4.28;;;;;;;;;;5095006;28;20051;-70
2023/10/22 10:31:48;;;;;;;9.88;3.90;;;;;;;;;;5095045;28;20059;-68
2023/10/22 10:34:21;;;;;;;9.43;4.20;;;;;;;;;;5094985;28;20101;-69
2023/10/22 10:36:48;;;;;;;11.00;3.65;;;;;;;;;;5094529;28;20515;-68
2023/10/22 10:39:33;;;;;;;14.38;3.67;;;;;;;;;;5076996;28;20145;-70
2023/10/22 10:41:59;;;;;;;8.15;3.33;;;;;;;;;;5077828;28;20369;-69
2023/10/22 10:44:29;;;;;;;9.87;3.70;;;;;;;;;;5095371;28;20122;-70
2023/10/22 10:46:55;;;;;;;7.63;3.40;;;;;;;;;;5076794;28;20047;-69
2023/10/22 10:49:50;;;;;;;10.77;3.50;;;;;;;;;;5094618;28;20145;-70
2023/10/22 10:52:18;;;;;;;7.00;2.88;;;;;;;;;;5072920;28;20064;-69
2023/10/22 10:54:57;;;;;;;9.82;3.20;;;;;;;;;;5076649;28;20051;-69
2023/10/22 10:57:37;;;;;;;8.13;2.80;;;;;;;;;;5094897;28;20048;-70
2023/10/22 11:00:09;;;;;;;5.50;2.70;;;;;;;;;;5094538;28;20123;-71
2023/10/22 11:02:45;;;;;;;6.70;2.80;;;;;;;;;;5094467;28;20048;-69
2023/10/22 11:05:11;;;;;;;12.13;3.83;;;;;;;;;;5094396;28;20044;-70
2023/10/22 11:07:38;;;;;;;8.02;3.13;;;;;;;;;;5094245;28;20044;-70
2023/10/22 11:10:11;;;;;;;10.50;3.50;;;;;;;;;;5094100;28;20090;-70
2023/10/22 11:12:38;;;;;;;7.07;3.05;;;;;;;;;;5094270;28;20040;-71
2023/10/22 11:15:04;;;;;;;8.88;3.25;;;;;;;;;;5094528;28;20070;-69
2023/10/22 11:17:31;;;;;;;8.40;2.22;;;;;;;;;;5094057;28;20052;-70
2023/10/22 11:19:57;;;;;;;5.32;1.25;;;;;;;;;;5059638;28;20404;-70
2023/10/22 11:22:23;;;;;;;3.78;1.25;;;;;;;;;;5094706;28;20044;-69
2023/10/22 11:24:51;;;;;;;7.43;1.60;;;;;;;;;;5094787;28;20127;-70
2023/10/22 11:27:17;;;;;;;9.07;1.52;;;;;;;;;;5093837;28;20056;-69
2023/10/22 11:29:44;;;;;;;4.57;1.88;;;;;;;;;;5093740;28;20139;-70
2023/10/22 11:32:13;;;;;;;6.38;1.42;;;;;;;;;;5093524;28;20048;-70
2023/10/22 11:34:50;;;;;;;8.93;2.00;;;;;;;;;;5093629;28;20044;-72
2023/10/22 11:37:18;;;;;;;5.15;1.17;;;;;;;;;;5075970;28;20040;-70
2023/10/22 11:39:44;;;;;;;7.18;1.17;;;;;;;;;;5076592;28;20131;-69
2023/10/22 11:42:11;;;;;;;3.90;1.37;;;;;;;;;;5093785;28;20040;-69
2023/10/22 11:44:37;;;;;;;4.78;1.30;;;;;;;;;;5075668;28;20094;-69
2023/10/22 11:47:24;;;;;;;5.88;1.20;;;;;;;;;;5094158;28;20058;-69
2023/10/22 11:49:54;;;;;;;5.03;1.33;;;;;;;;;;5094094;28;20048;-69
2023/10/22 11:52:38;;;;;;;6.57;1.70;;;;;;;;;;5075661;28;20074;-71
2023/10/22 11:55:09;;;;;;;7.00;1.25;;;;;;;;;;5093488;28;20044;-70
2023/10/22 11:57:41;;;;;;;10.02;1.08;;;;;;;;;;5092998;28;20358;-70
2023/10/22 12:00:09;;;;;;;6.18;1.70;;;;;;;;;;5093055;28;20098;-71
2023/10/22 12:02:36;;;;;;;4.05;0.80;;;;;;;;;;5058722;28;20048;-69
2023/10/22 12:05:02;;;;;;;4.80;0.73;;;;;;;;;;5093268;28;20044;-69
2023/10/22 12:07:28;;;;;;;4.85;0.98;;;;;;;;;;5075732;28;20048;-70
2023/10/22 12:09:54;;;;;;;3.35;0.55;;;;;;;;;;5094008;28;20427;-68
2023/10/22 12:12:22;;;;;;;3.78;0.73;;;;;;;;;;5094017;28;20055;-79
2023/10/22 12:14:49;;;;;;;2.88;0.52;;;;;;;;;;5058737;28;20086;-70
2023/10/22 12:17:16;;;;;;;4.78;0.60;;;;;;;;;;5093206;28;20055;-70
2023/10/22 12:19:42;;;;;;;4.85;0.50;;;;;;;;;;5058798;28;20060;-69
2023/10/22 12:22:08;;;;;;;5.43;0.80;;;;;;;;;;5093790;28;20051;-70
2023/10/22 12:24:34;;;;;;;4.70;0.73;;;;;;;;;;5058468;28;20087;-69
2023/10/22 12:27:00;;;;;;;3.15;0.50;;;;;;;;;;5093138;28;20044;-70
2023/10/22 12:29:27;;;;;;;4.45;1.08;;;;;;;;;;5093676;28;20080;-72
2023/10/22 12:31:53;;;;;;;4.93;0.80;;;;;;;;;;5092895;28;20136;-69
2023/10/22 12:34:19;;;;;;;2.58;0.70;;;;;;;;;;5075244;28;20051;-70
2023/10/22 12:36:45;;;;;;;2.72;0.73;;;;;;;;;;5092989;28;20046;-69
2023/10/22 12:39:11;;;;;;;3.47;0.90;;;;;;;;;;5094181;28;20491;-69
2023/10/22 12:41:38;;;;;;;3.47;0.60;;;;;;;;;;5062538;28;20044;-70
2023/10/22 12:44:04;;;;;;;3.88;0.70;;;;;;;;;;5097177;28;20051;-68
2023/10/22 12:46:30;;;;;;;8.88;1.02;;;;;;;;;;5097137;28;20091;-69
2023/10/22 12:48:57;;;;;;;2.90;0.70;;;;;;;;;;5096951;28;20100;-69
2023/10/22 12:51:23;;;;;;;2.70;0.90;;;;;;;;;;5078658;28;20289;-69
2023/10/22 12:53:49;;;;;;;4.10;0.60;;;;;;;;;;5079021;28;20052;-70
2023/10/22 12:56:17;;;;;;;3.72;0.52;;;;;;;;;;5096658;28;20080;-70
2023/10/22 12:58:43;;;;;;;3.25;0.50;;;;;;;;;;5097349;28;20104;-71
2023/10/22 13:01:09;;;;;;;3.10;0.53;;;;;;;;;;5097487;28;20067;-70
2023/10/22 13:03:35;;;;;;;1.65;0.47;;;;;;;;;;5078758;28;20468;-69
2023/10/22 13:06:02;;;;;;;3.38;0.80;;;;;;;;;;5078972;28;20388;-69
2023/10/22 13:08:28;;;;;;;3.35;0.90;;;;;;;;;;5078541;28;20359;-77
2023/10/22 13:10:54;;;;;;;2.67;0.40;;;;;;;;;;5096497;28;20091;-69
2023/10/22 13:13:21;;;;;;;3.70;0.55;;;;;;;;;;5079137;28;20380;-70
2023/10/22 13:15:47;;;;;;;2.97;0.47;;;;;;;;;;5078387;28;20044;-70
2023/10/22 13:18:13;;;;;;;4.53;0.82;;;;;;;;;;5062058;28;20079;-69
2023/10/22 13:20:39;;;;;;;6.88;0.50;;;;;;;;;;5096594;28;20399;-69
2023/10/22 13:23:05;;;;;;;3.58;0.50;;;;;;;;;;5097262;28;20425;-69
2023/10/22 13:25:31;;;;;;;2.88;0.50;;;;;;;;;;5078218;28;20046;-72
2023/10/22 13:27:57;;;;;;;3.42;0.70;;;;;;;;;;5061871;28;20484;-70
2023/10/22 13:30:23;;;;;;;6.95;0.60;;;;;;;;;;5061861;28;20655;-69
2023/10/22 13:32:49;;;;;;;4.22;0.60;;;;;;;;;;5096221;28;20071;-69
2023/10/22 13:35:15;;;;;;;3.95;0.40;;;;;;;;;;5096152;28;20105;-69
2023/10/22 13:37:41;;;;;;;2.47;0.50;;;;;;;;;;5095741;28;20488;-69
2023/10/22 13:40:08;;;;;;;6.38;0.55;;;;;;;;;;5096149;28;20104;-71
2023/10/22 13:42:34;;;;;;;4.13;0.50;;;;;;;;;;5045273;28;20488;-71
2023/10/22 13:45:00;;;;;;;2.60;0.50;;;;;;;;;;5096929;28;20368;-69
2023/10/22 13:47:26;;;;;;;3.42;0.80;;;;;;;;;;5078271;28;20126;-68
2023/10/22 13:49:52;;;;;;;6.53;0.63;;;;;;;;;;5095680;28;20044;-70
2023/10/22 13:52:19;;;;;;;7.15;0.70;;;;;;;;;;5077517;28;20356;-69
2023/10/22 13:54:45;;;;;;;3.00;0.60;;;;;;;;;;5095562;28;20090;-69
2023/10/22 13:57:11;;;;;;;5.23;0.53;;;;;;;;;;5095545;28;20059;-69
2023/10/22 13:59:37;;;;;;;3.20;0.50;;;;;;;;;;5077961;28;20059;-71
2023/10/22 14:02:03;;;;;;;3.55;0.82;;;;;;;;;;5095608;28;20427;-69
2023/10/22 14:04:30;;;;;;;3.38;0.60;;;;;;;;;;5095532;28;20079;-69
2023/10/22 14:06:56;;;;;;;3.25;0.80;;;;;;;;;;5078295;28;20059;-69
2023/10/22 14:09:22;;;;;;;5.45;0.60;;;;;;;;;;5095483;28;20495;-69
2023/10/22 14:11:49;;;;;;;3.00;0.75;;;;;;;;;;5095330;28;20048;-69
2023/10/22 14:14:15;;;;;;;5.00;1.00;;;;;;;;;;5077449;28;20094;-70
2023/10/22 14:16:41;;;;;;;4.30;0.77;;;;;;;;;;5095258;28;20040;-70
2023/10/22 14:19:07;;;;;;;5.30;0.75;;;;;;;;;;5077746;28;20048;-69
2023/10/22 14:21:33;;;;;;;5.60;1.15;;;;;;;;;;5095264;28;20063;-70
2023/10/22 14:23:59;;;;;;;8.00;1.10;;;;;;;;;;5077259;28;20040;-70
2023/10/22 14:26:25;;;;;;;4.67;1.20;;;;;;;;;;5077871;28;20044;-69
2023/10/22 14:28:51;;;;;;;5.75;1.20;;;;;;;;;;5094967;28;20052;-69
2023/10/22 14:31:19;;;;;;;4.53;1.20;;;;;;;;;;5044788;28;20366;-69
2023/10/22 14:33:45;;;;;;;7.25;1.50;;;;;;;;;;5077096;28;20105;-69
2023/10/22 14:36:15;;;;;;;4.57;1.30;;;;;;;;;;5094836;28;20112;-70
2023/10/22 14:38:41;;;;;;;4.90;1.40;;;;;;;;;;5094804;28;20048;-70
2023/10/22 14:41:07;;;;;;;5.15;1.98;;;;;;;;;;5095002;28;20086;-69